Ana Sayfa
METAR-TAF:

METAR-TAF

Havaalanları :

Kamışlı Havaalanı

Kamışlı, Suriye

Enlem: 37-03N, Boylam: 041-13E, yükseklik: 455 m

Güncel hava durumu gözlemi

Rapor saat 11:00 UTC de 1 saat ve 45 dakika önce yapıldı.
Rüzgar doğudan 8 kt
Sıcaklık 19°C
Nem 37%
Basınç 1018 hPa
Görüş mesafesi 10 km veya daha fazla
1500 m altında bulut yok ve kümülonimbus yok

METAR: OSKL 221100Z 10008KT CAVOK 19/04 Q1018

Saat: 14:45 (12:45 UTC)


TAF: eksik

4.000'den fazla havaalanı için hava durumu gözlemleri ve tahminleri (METAR ve TAF raporları).

Kullanılabilir istasyonlar harita üzerinde sarı ve kırmızı noktalarla gösterilir.

İstasyonun adını görmek için fareyi noktanın üzerinde gezdirin.

Sonrasında hava gözlem ve tahminlerini görmek için tıklayın.

Haritayı değiştirmek için: yaklaştırmak için siyah artı işaretli yeşil düğmeye ve uzaklaştırmak için de eksi işaretli düğmeye hızla tıklayın; bitişik haritalar için yeşil okları kullanın.


METAR-TAF: